sensor_id;sensor_type;location;lat;lon;timestamp;P1;durP1;ratioP1;P2;durP2;ratioP2
45926;SDS011;31639;47.614;19.684;2022-08-21T00:02:25;7.60;;;4.00;;
45926;SDS011;31639;47.614;19.684;2022-08-21T00:07:27;12.27;;;4.47;;
45926;SDS011;31639;47.614;19.684;2022-08-21T00:12:27;9.33;;;3.27;;
45926;SDS011;31639;47.614;19.684;2022-08-21T00:17:28;4.43;;;3.58;;
45926;SDS011;31639;47.614;19.684;2022-08-21T00:22:28;6.18;;;3.53;;
45926;SDS011;31639;47.614;19.684;2022-08-21T00:27:29;5.32;;;3.38;;
45926;SDS011;31639;47.614;19.684;2022-08-21T00:32:29;5.97;;;3.60;;
45926;SDS011;31639;47.614;19.684;2022-08-21T00:37:30;5.05;;;3.45;;
45926;SDS011;31639;47.614;19.684;2022-08-21T00:42:30;6.73;;;3.57;;
45926;SDS011;31639;47.614;19.684;2022-08-21T00:47:30;4.85;;;3.15;;
45926;SDS011;31639;47.614;19.684;2022-08-21T00:52:32;5.47;;;3.05;;
45926;SDS011;31639;47.614;19.684;2022-08-21T00:57:38;4.05;;;2.75;;
45926;SDS011;31639;47.614;19.684;2022-08-21T01:02:43;5.35;;;3.42;;
45926;SDS011;31639;47.614;19.684;2022-08-21T01:07:43;5.07;;;2.80;;
45926;SDS011;31639;47.614;19.684;2022-08-21T01:12:44;4.90;;;2.85;;
45926;SDS011;31639;47.614;19.684;2022-08-21T01:17:45;4.75;;;2.67;;
45926;SDS011;31639;47.614;19.684;2022-08-21T01:22:47;4.07;;;2.55;;
45926;SDS011;31639;47.614;19.684;2022-08-21T01:27:47;3.80;;;2.60;;
45926;SDS011;31639;47.614;19.684;2022-08-21T01:32:48;4.90;;;2.38;;
45926;SDS011;31639;47.614;19.684;2022-08-21T01:37:50;3.70;;;2.45;;
45926;SDS011;31639;47.614;19.684;2022-08-21T01:42:51;4.75;;;2.80;;
45926;SDS011;31639;47.614;19.684;2022-08-21T01:47:53;3.45;;;2.72;;
45926;SDS011;31639;47.614;19.684;2022-08-21T01:52:53;4.72;;;2.80;;
45926;SDS011;31639;47.614;19.684;2022-08-21T01:57:54;3.90;;;2.60;;
45926;SDS011;31639;47.614;19.684;2022-08-21T02:02:55;3.30;;;2.35;;
45926;SDS011;31639;47.614;19.684;2022-08-21T02:07:56;5.13;;;2.40;;
45926;SDS011;31639;47.614;19.684;2022-08-21T02:12:57;4.15;;;2.90;;
45926;SDS011;31639;47.614;19.684;2022-08-21T02:18:00;5.30;;;2.38;;
45926;SDS011;31639;47.614;19.684;2022-08-21T02:23:02;4.53;;;2.80;;
45926;SDS011;31639;47.614;19.684;2022-08-21T02:28:05;4.05;;;2.33;;
45926;SDS011;31639;47.614;19.684;2022-08-21T02:33:09;4.35;;;2.78;;
45926;SDS011;31639;47.614;19.684;2022-08-21T02:38:14;4.28;;;2.85;;
45926;SDS011;31639;47.614;19.684;2022-08-21T02:43:17;4.18;;;2.70;;
45926;SDS011;31639;47.614;19.684;2022-08-21T02:48:21;4.53;;;3.60;;
45926;SDS011;31639;47.614;19.684;2022-08-21T02:53:24;6.32;;;3.20;;
45926;SDS011;31639;47.614;19.684;2022-08-21T02:58:27;5.32;;;3.08;;
45926;SDS011;31639;47.614;19.684;2022-08-21T03:03:31;4.65;;;2.78;;
45926;SDS011;31639;47.614;19.684;2022-08-21T03:08:31;4.28;;;2.78;;
45926;SDS011;31639;47.614;19.684;2022-08-21T03:13:32;6.43;;;3.05;;
45926;SDS011;31639;47.614;19.684;2022-08-21T03:18:32;8.02;;;4.78;;
45926;SDS011;31639;47.614;19.684;2022-08-21T03:23:33;5.30;;;3.40;;
45926;SDS011;31639;47.614;19.684;2022-08-21T03:28:33;3.87;;;2.70;;
45926;SDS011;31639;47.614;19.684;2022-08-21T03:33:34;6.63;;;3.30;;
45926;SDS011;31639;47.614;19.684;2022-08-21T03:38:35;7.63;;;3.33;;
45926;SDS011;31639;47.614;19.684;2022-08-21T03:43:36;8.13;;;4.57;;
45926;SDS011;31639;47.614;19.684;2022-08-21T03:48:36;5.03;;;3.58;;
45926;SDS011;31639;47.614;19.684;2022-08-21T03:53:37;8.50;;;3.72;;
45926;SDS011;31639;47.614;19.684;2022-08-21T03:58:38;6.60;;;4.35;;
45926;SDS011;31639;47.614;19.684;2022-08-21T04:03:39;4.20;;;2.67;;
45926;SDS011;31639;47.614;19.684;2022-08-21T04:08:39;4.53;;;3.33;;
45926;SDS011;31639;47.614;19.684;2022-08-21T04:13:42;4.57;;;3.42;;
45926;SDS011;31639;47.614;19.684;2022-08-21T04:18:43;5.60;;;3.40;;
45926;SDS011;31639;47.614;19.684;2022-08-21T04:23:43;5.82;;;3.22;;
45926;SDS011;31639;47.614;19.684;2022-08-21T04:28:44;6.20;;;3.40;;
45926;SDS011;31639;47.614;19.684;2022-08-21T04:33:44;5.40;;;3.40;;
45926;SDS011;31639;47.614;19.684;2022-08-21T04:38:44;5.93;;;3.10;;
45926;SDS011;31639;47.614;19.684;2022-08-21T04:43:45;4.10;;;2.93;;
45926;SDS011;31639;47.614;19.684;2022-08-21T04:48:45;5.30;;;3.67;;
45926;SDS011;31639;47.614;19.684;2022-08-21T04:53:50;8.67;;;3.80;;
45926;SDS011;31639;47.614;19.684;2022-08-21T04:58:59;5.70;;;3.90;;
45926;SDS011;31639;47.614;19.684;2022-08-21T05:04:04;4.90;;;2.70;;
45926;SDS011;31639;47.614;19.684;2022-08-21T05:09:08;6.07;;;3.92;;
45926;SDS011;31639;47.614;19.684;2022-08-21T05:14:09;9.98;;;3.85;;
45926;SDS011;31639;47.614;19.684;2022-08-21T05:19:11;5.72;;;3.60;;
45926;SDS011;31639;47.614;19.684;2022-08-21T05:24:12;5.18;;;4.07;;
45926;SDS011;31639;47.614;19.684;2022-08-21T05:29:13;6.70;;;4.53;;
45926;SDS011;31639;47.614;19.684;2022-08-21T05:34:17;6.47;;;3.90;;
45926;SDS011;31639;47.614;19.684;2022-08-21T05:39:19;5.13;;;4.05;;
45926;SDS011;31639;47.614;19.684;2022-08-21T05:44:19;6.18;;;3.63;;
45926;SDS011;31639;47.614;19.684;2022-08-21T05:49:19;5.37;;;3.63;;
45926;SDS011;31639;47.614;19.684;2022-08-21T05:54:20;7.07;;;4.37;;
45926;SDS011;31639;47.614;19.684;2022-08-21T05:59:20;3.90;;;2.80;;
45926;SDS011;31639;47.614;19.684;2022-08-21T06:04:21;7.53;;;3.70;;
45926;SDS011;31639;47.614;19.684;2022-08-21T06:09:21;5.75;;;3.33;;
45926;SDS011;31639;47.614;19.684;2022-08-21T06:14:22;4.30;;;3.03;;
45926;SDS011;31639;47.614;19.684;2022-08-21T06:19:22;6.40;;;3.97;;
45926;SDS011;31639;47.614;19.684;2022-08-21T06:24:22;6.78;;;2.85;;
45926;SDS011;31639;47.614;19.684;2022-08-21T06:29:23;4.55;;;3.00;;
45926;SDS011;31639;47.614;19.684;2022-08-21T06:34:24;6.63;;;3.08;;
45926;SDS011;31639;47.614;19.684;2022-08-21T06:39:24;5.57;;;3.60;;
45926;SDS011;31639;47.614;19.684;2022-08-21T06:44:25;5.87;;;3.10;;
45926;SDS011;31639;47.614;19.684;2022-08-21T06:49:25;5.63;;;3.33;;
45926;SDS011;31639;47.614;19.684;2022-08-21T06:54:26;4.93;;;2.83;;
45926;SDS011;31639;47.614;19.684;2022-08-21T06:59:26;6.70;;;3.37;;
45926;SDS011;31639;47.614;19.684;2022-08-21T07:04:27;7.63;;;3.10;;
45926;SDS011;31639;47.614;19.684;2022-08-21T07:09:27;3.95;;;3.50;;
45926;SDS011;31639;47.614;19.684;2022-08-21T07:14:28;8.43;;;2.72;;
45926;SDS011;31639;47.614;19.684;2022-08-21T07:19:28;5.97;;;2.95;;
45926;SDS011;31639;47.614;19.684;2022-08-21T07:24:29;5.95;;;3.45;;
45926;SDS011;31639;47.614;19.684;2022-08-21T07:29:30;6.13;;;3.25;;
45926;SDS011;31639;47.614;19.684;2022-08-21T07:34:30;5.60;;;3.50;;
45926;SDS011;31639;47.614;19.684;2022-08-21T07:39:31;3.65;;;2.58;;
45926;SDS011;31639;47.614;19.684;2022-08-21T07:44:31;2.17;;;1.97;;
45926;SDS011;31639;47.614;19.684;2022-08-21T07:49:34;4.32;;;2.88;;
45926;SDS011;31639;47.614;19.684;2022-08-21T07:54:34;5.82;;;2.80;;
45926;SDS011;31639;47.614;19.684;2022-08-21T07:59:35;3.60;;;2.53;;
45926;SDS011;31639;47.614;19.684;2022-08-21T08:04:35;4.10;;;2.70;;
45926;SDS011;31639;47.614;19.684;2022-08-21T08:09:35;3.72;;;2.88;;
45926;SDS011;31639;47.614;19.684;2022-08-21T08:14:36;4.93;;;2.83;;
45926;SDS011;31639;47.614;19.684;2022-08-21T08:19:36;4.13;;;2.50;;
45926;SDS011;31639;47.614;19.684;2022-08-21T08:24:38;3.93;;;2.97;;
45926;SDS011;31639;47.614;19.684;2022-08-21T08:29:38;2.75;;;2.13;;
45926;SDS011;31639;47.614;19.684;2022-08-21T08:34:39;3.97;;;2.57;;
45926;SDS011;31639;47.614;19.684;2022-08-21T08:39:39;5.00;;;2.78;;
45926;SDS011;31639;47.614;19.684;2022-08-21T08:44:40;8.07;;;2.97;;
45926;SDS011;31639;47.614;19.684;2022-08-21T08:49:45;3.90;;;2.33;;
45926;SDS011;31639;47.614;19.684;2022-08-21T08:55:00;3.35;;;2.75;;
45926;SDS011;31639;47.614;19.684;2022-08-21T09:00:07;4.47;;;3.03;;
45926;SDS011;31639;47.614;19.684;2022-08-21T09:10:21;3.17;;;2.35;;
45926;SDS011;31639;47.614;19.684;2022-08-21T09:15:36;6.38;;;2.30;;
45926;SDS011;31639;47.614;19.684;2022-08-21T09:31:35;4.82;;;3.20;;
45926;SDS011;31639;47.614;19.684;2022-08-21T09:41:44;3.97;;;2.80;;
45926;SDS011;31639;47.614;19.684;2022-08-21T09:46:49;6.10;;;3.42;;
45926;SDS011;31639;47.614;19.684;2022-08-21T09:51:51;5.05;;;2.50;;
45926;SDS011;31639;47.614;19.684;2022-08-21T09:57:01;4.95;;;2.75;;
45926;SDS011;31639;47.614;19.684;2022-08-21T10:02:32;4.72;;;2.47;;
45926;SDS011;31639;47.614;19.684;2022-08-21T10:07:36;12.15;;;4.07;;
45926;SDS011;31639;47.614;19.684;2022-08-21T10:22:52;3.47;;;2.30;;
45926;SDS011;31639;47.614;19.684;2022-08-21T10:38:49;3.65;;;2.50;;
45926;SDS011;31639;47.614;19.684;2022-08-21T10:49:31;2.97;;;2.67;;
45926;SDS011;31639;47.614;19.684;2022-08-21T10:54:56;7.57;;;4.05;;
45926;SDS011;31639;47.614;19.684;2022-08-21T11:00:04;3.78;;;2.60;;
45926;SDS011;31639;47.614;19.684;2022-08-21T11:05:19;4.65;;;2.55;;
45926;SDS011;31639;47.614;19.684;2022-08-21T11:10:27;5.10;;;3.17;;
45926;SDS011;31639;47.614;19.684;2022-08-21T11:26:58;3.75;;;2.92;;
45926;SDS011;31639;47.614;19.684;2022-08-21T11:32:04;4.10;;;2.42;;
45926;SDS011;31639;47.614;19.684;2022-08-21T11:42:56;3.63;;;2.53;;
45926;SDS011;31639;47.614;19.684;2022-08-21T11:53:15;3.80;;;2.47;;
45926;SDS011;31639;47.614;19.684;2022-08-21T11:58:24;4.70;;;2.38;;
45926;SDS011;31639;47.614;19.684;2022-08-21T12:03:29;6.63;;;3.43;;
45926;SDS011;31639;47.614;19.684;2022-08-21T12:08:42;6.35;;;3.33;;
45926;SDS011;31639;47.614;19.684;2022-08-21T12:19:13;4.80;;;3.08;;
45926;SDS011;31639;47.614;19.684;2022-08-21T12:29:30;5.03;;;3.88;;
45926;SDS011;31639;47.614;19.684;2022-08-21T12:39:49;5.15;;;3.10;;
45926;SDS011;31639;47.614;19.684;2022-08-21T12:44:56;6.72;;;5.25;;
45926;SDS011;31639;47.614;19.684;2022-08-21T12:55:13;4.35;;;2.50;;
45926;SDS011;31639;47.614;19.684;2022-08-21T13:00:20;3.95;;;2.05;;
45926;SDS011;31639;47.614;19.684;2022-08-21T13:10:31;5.05;;;2.17;;
45926;SDS011;31639;47.614;19.684;2022-08-21T13:15:37;3.10;;;2.15;;
45926;SDS011;31639;47.614;19.684;2022-08-21T13:20:40;4.55;;;2.38;;
45926;SDS011;31639;47.614;19.684;2022-08-21T13:25:42;3.17;;;2.03;;
45926;SDS011;31639;47.614;19.684;2022-08-21T13:30:43;2.80;;;1.63;;
45926;SDS011;31639;47.614;19.684;2022-08-21T13:35:50;5.75;;;2.20;;
45926;SDS011;31639;47.614;19.684;2022-08-21T13:41:04;5.22;;;1.90;;
45926;SDS011;31639;47.614;19.684;2022-08-21T13:46:11;2.38;;;2.17;;
45926;SDS011;31639;47.614;19.684;2022-08-21T13:51:14;4.50;;;2.42;;
45926;SDS011;31639;47.614;19.684;2022-08-21T13:56:25;3.65;;;2.13;;
45926;SDS011;31639;47.614;19.684;2022-08-21T14:01:32;2.85;;;2.08;;
45926;SDS011;31639;47.614;19.684;2022-08-21T14:06:37;4.20;;;1.95;;
45926;SDS011;31639;47.614;19.684;2022-08-21T14:11:38;2.75;;;1.80;;
45926;SDS011;31639;47.614;19.684;2022-08-21T14:16:42;3.83;;;2.17;;
45926;SDS011;31639;47.614;19.684;2022-08-21T14:21:45;2.85;;;2.60;;
45926;SDS011;31639;47.614;19.684;2022-08-21T14:26:54;3.83;;;1.95;;
45926;SDS011;31639;47.614;19.684;2022-08-21T14:31:57;4.30;;;2.05;;
45926;SDS011;31639;47.614;19.684;2022-08-21T14:36:59;6.15;;;2.53;;
45926;SDS011;31639;47.614;19.684;2022-08-21T14:41:59;4.03;;;1.50;;
45926;SDS011;31639;47.614;19.684;2022-08-21T14:47:00;3.50;;;1.70;;
45926;SDS011;31639;47.614;19.684;2022-08-21T14:52:01;3.80;;;2.10;;
45926;SDS011;31639;47.614;19.684;2022-08-21T14:57:04;3.00;;;1.80;;
45926;SDS011;31639;47.614;19.684;2022-08-21T15:02:07;2.78;;;1.33;;
45926;SDS011;31639;47.614;19.684;2022-08-21T15:07:08;3.22;;;2.15;;
45926;SDS011;31639;47.614;19.684;2022-08-21T15:12:09;4.20;;;1.83;;
45926;SDS011;31639;47.614;19.684;2022-08-21T15:17:10;5.97;;;1.45;;
45926;SDS011;31639;47.614;19.684;2022-08-21T15:22:12;2.25;;;1.50;;
45926;SDS011;31639;47.614;19.684;2022-08-21T15:27:12;2.92;;;1.75;;
45926;SDS011;31639;47.614;19.684;2022-08-21T15:32:16;3.78;;;1.60;;
45926;SDS011;31639;47.614;19.684;2022-08-21T15:37:19;4.88;;;1.95;;
45926;SDS011;31639;47.614;19.684;2022-08-21T15:42:20;4.90;;;2.00;;
45926;SDS011;31639;47.614;19.684;2022-08-21T15:47:22;4.93;;;2.35;;
45926;SDS011;31639;47.614;19.684;2022-08-21T15:52:28;2.85;;;1.70;;
45926;SDS011;31639;47.614;19.684;2022-08-21T15:57:28;7.95;;;2.63;;
45926;SDS011;31639;47.614;19.684;2022-08-21T16:02:30;4.45;;;2.58;;
45926;SDS011;31639;47.614;19.684;2022-08-21T16:07:31;3.15;;;1.60;;
45926;SDS011;31639;47.614;19.684;2022-08-21T16:12:32;2.00;;;1.60;;
45926;SDS011;31639;47.614;19.684;2022-08-21T16:17:38;2.10;;;1.70;;
45926;SDS011;31639;47.614;19.684;2022-08-21T16:22:40;5.90;;;2.33;;
45926;SDS011;31639;47.614;19.684;2022-08-21T16:27:41;3.55;;;2.17;;
45926;SDS011;31639;47.614;19.684;2022-08-21T16:32:45;3.00;;;2.17;;
45926;SDS011;31639;47.614;19.684;2022-08-21T16:37:47;3.78;;;2.67;;
45926;SDS011;31639;47.614;19.684;2022-08-21T16:42:48;7.82;;;2.65;;
45926;SDS011;31639;47.614;19.684;2022-08-21T16:47:49;3.63;;;2.90;;
45926;SDS011;31639;47.614;19.684;2022-08-21T16:52:50;4.50;;;3.05;;
45926;SDS011;31639;47.614;19.684;2022-08-21T16:57:52;3.50;;;2.30;;
45926;SDS011;31639;47.614;19.684;2022-08-21T17:02:53;3.60;;;2.45;;
45926;SDS011;31639;47.614;19.684;2022-08-21T17:07:54;4.65;;;2.03;;
45926;SDS011;31639;47.614;19.684;2022-08-21T17:12:55;2.60;;;2.00;;
45926;SDS011;31639;47.614;19.684;2022-08-21T17:17:57;4.18;;;1.67;;
45926;SDS011;31639;47.614;19.684;2022-08-21T17:22:58;3.40;;;1.60;;
45926;SDS011;31639;47.614;19.684;2022-08-21T17:27:59;3.22;;;2.03;;
45926;SDS011;31639;47.614;19.684;2022-08-21T17:33:00;3.88;;;2.03;;
45926;SDS011;31639;47.614;19.684;2022-08-21T17:38:01;3.78;;;2.00;;
45926;SDS011;31639;47.614;19.684;2022-08-21T17:43:01;2.30;;;1.90;;
45926;SDS011;31639;47.614;19.684;2022-08-21T17:48:02;4.03;;;2.00;;
45926;SDS011;31639;47.614;19.684;2022-08-21T17:53:03;2.92;;;1.70;;
45926;SDS011;31639;47.614;19.684;2022-08-21T17:58:03;3.70;;;2.17;;
45926;SDS011;31639;47.614;19.684;2022-08-21T18:03:05;2.95;;;1.65;;
45926;SDS011;31639;47.614;19.684;2022-08-21T18:08:14;2.88;;;2.20;;
45926;SDS011;31639;47.614;19.684;2022-08-21T18:13:16;3.05;;;1.63;;
45926;SDS011;31639;47.614;19.684;2022-08-21T18:18:22;2.97;;;1.75;;
45926;SDS011;31639;47.614;19.684;2022-08-21T18:23:24;3.35;;;1.85;;
45926;SDS011;31639;47.614;19.684;2022-08-21T18:28:24;3.33;;;2.05;;
45926;SDS011;31639;47.614;19.684;2022-08-21T18:33:25;4.05;;;3.00;;
45926;SDS011;31639;47.614;19.684;2022-08-21T18:38:26;1.60;;;1.50;;
45926;SDS011;31639;47.614;19.684;2022-08-21T18:43:27;2.45;;;1.90;;
45926;SDS011;31639;47.614;19.684;2022-08-21T18:48:27;3.35;;;1.73;;
45926;SDS011;31639;47.614;19.684;2022-08-21T18:53:27;2.83;;;1.70;;
45926;SDS011;31639;47.614;19.684;2022-08-21T18:58:28;4.53;;;1.60;;
45926;SDS011;31639;47.614;19.684;2022-08-21T19:03:29;2.80;;;2.20;;
45926;SDS011;31639;47.614;19.684;2022-08-21T19:08:30;3.35;;;1.73;;
45926;SDS011;31639;47.614;19.684;2022-08-21T19:13:30;2.72;;;1.92;;
45926;SDS011;31639;47.614;19.684;2022-08-21T19:18:33;2.90;;;1.90;;
45926;SDS011;31639;47.614;19.684;2022-08-21T19:23:38;2.40;;;1.30;;
45926;SDS011;31639;47.614;19.684;2022-08-21T19:28:40;4.53;;;2.35;;
45926;SDS011;31639;47.614;19.684;2022-08-21T19:33:49;2.38;;;1.73;;
45926;SDS011;31639;47.614;19.684;2022-08-21T19:38:51;2.92;;;1.90;;
45926;SDS011;31639;47.614;19.684;2022-08-21T19:43:53;2.17;;;1.60;;
45926;SDS011;31639;47.614;19.684;2022-08-21T19:48:57;4.90;;;2.83;;
45926;SDS011;31639;47.614;19.684;2022-08-21T19:53:59;4.22;;;2.22;;
45926;SDS011;31639;47.614;19.684;2022-08-21T19:59:02;3.22;;;2.13;;
45926;SDS011;31639;47.614;19.684;2022-08-21T20:04:04;5.85;;;1.95;;
45926;SDS011;31639;47.614;19.684;2022-08-21T20:09:05;2.95;;;2.25;;
45926;SDS011;31639;47.614;19.684;2022-08-21T20:14:08;2.88;;;1.77;;
45926;SDS011;31639;47.614;19.684;2022-08-21T20:19:11;4.53;;;1.85;;
45926;SDS011;31639;47.614;19.684;2022-08-21T20:24:12;4.38;;;2.03;;
45926;SDS011;31639;47.614;19.684;2022-08-21T20:29:13;4.60;;;2.63;;
45926;SDS011;31639;47.614;19.684;2022-08-21T20:34:14;4.93;;;3.35;;
45926;SDS011;31639;47.614;19.684;2022-08-21T20:39:14;3.65;;;2.50;;
45926;SDS011;31639;47.614;19.684;2022-08-21T20:44:15;2.83;;;2.35;;
45926;SDS011;31639;47.614;19.684;2022-08-21T20:49:18;2.53;;;1.95;;
45926;SDS011;31639;47.614;19.684;2022-08-21T21:04:36;3.07;;;2.13;;
45926;SDS011;31639;47.614;19.684;2022-08-21T21:09:44;11.60;;;2.58;;
45926;SDS011;31639;47.614;19.684;2022-08-21T21:14:50;4.63;;;3.15;;
45926;SDS011;31639;47.614;19.684;2022-08-21T21:19:54;3.67;;;2.80;;
45926;SDS011;31639;47.614;19.684;2022-08-21T21:25:14;3.08;;;1.77;;
45926;SDS011;31639;47.614;19.684;2022-08-21T21:30:39;3.58;;;2.30;;
45926;SDS011;31639;47.614;19.684;2022-08-21T21:35:46;3.90;;;2.17;;
45926;SDS011;31639;47.614;19.684;2022-08-21T21:56:36;3.20;;;2.33;;
45926;SDS011;31639;47.614;19.684;2022-08-21T22:01:59;2.90;;;1.70;;
45926;SDS011;31639;47.614;19.684;2022-08-21T22:07:23;2.50;;;2.30;;
45926;SDS011;31639;47.614;19.684;2022-08-21T22:18:13;2.85;;;1.92;;
45926;SDS011;31639;47.614;19.684;2022-08-21T22:23:17;3.40;;;2.20;;
45926;SDS011;31639;47.614;19.684;2022-08-21T22:28:26;4.40;;;2.22;;
45926;SDS011;31639;47.614;19.684;2022-08-21T22:33:31;6.80;;;2.80;;
45926;SDS011;31639;47.614;19.684;2022-08-21T22:38:33;3.83;;;2.43;;
45926;SDS011;31639;47.614;19.684;2022-08-21T22:43:35;3.30;;;2.35;;
45926;SDS011;31639;47.614;19.684;2022-08-21T22:48:37;3.90;;;2.47;;
45926;SDS011;31639;47.614;19.684;2022-08-21T22:53:40;3.78;;;2.20;;
45926;SDS011;31639;47.614;19.684;2022-08-21T22:58:52;6.70;;;2.15;;
45926;SDS011;31639;47.614;19.684;2022-08-21T23:03:57;3.40;;;2.67;;
45926;SDS011;31639;47.614;19.684;2022-08-21T23:09:20;3.33;;;2.00;;
45926;SDS011;31639;47.614;19.684;2022-08-21T23:14:29;3.97;;;2.30;;
45926;SDS011;31639;47.614;19.684;2022-08-21T23:25:18;4.82;;;2.78;;
45926;SDS011;31639;47.614;19.684;2022-08-21T23:30:16;6.22;;;2.42;;
45926;SDS011;31639;47.614;19.684;2022-08-21T23:35:49;6.85;;;2.40;;
45926;SDS011;31639;47.614;19.684;2022-08-21T23:41:25;4.00;;;2.60;;
45926;SDS011;31639;47.614;19.684;2022-08-21T23:57:41;5.65;;;2.45;;
